createdAt,value
2018-12-02T00:00:39.578Z,0.00
2018-12-02T00:01:39.568Z,0.00
2018-12-02T00:02:39.557Z,0.00
2018-12-02T00:03:39.546Z,0.00
2018-12-02T00:04:39.534Z,0.00
2018-12-02T00:05:39.522Z,0.00
2018-12-02T00:06:39.508Z,0.00
2018-12-02T00:07:39.499Z,0.00
2018-12-02T00:08:39.493Z,0.00
2018-12-02T00:09:39.477Z,0.00
2018-12-02T00:10:39.467Z,0.00
2018-12-02T00:11:39.451Z,0.00
2018-12-02T00:12:39.439Z,0.00
2018-12-02T00:13:39.428Z,0.00
2018-12-02T00:14:39.420Z,0.00
2018-12-02T00:15:39.411Z,0.00
2018-12-02T00:16:39.397Z,0.00
2018-12-02T00:17:39.389Z,0.00
2018-12-02T00:18:39.375Z,0.00
2018-12-02T00:19:39.360Z,0.00
2018-12-02T00:20:39.352Z,0.00
2018-12-02T00:21:39.337Z,0.00
2018-12-02T00:22:39.333Z,0.00
2018-12-02T00:23:39.316Z,0.00
2018-12-02T00:24:39.327Z,0.00
2018-12-02T00:25:39.326Z,0.00
2018-12-02T00:26:39.333Z,0.00
2018-12-02T00:27:39.341Z,0.00
2018-12-02T00:28:39.313Z,0.00
2018-12-02T00:29:39.271Z,0.00
2018-12-02T00:30:39.273Z,0.00
2018-12-02T00:31:39.277Z,0.00
2018-12-02T00:32:39.216Z,0.00
2018-12-02T00:33:39.201Z,0.00
2018-12-02T00:34:39.189Z,0.00
2018-12-02T00:35:39.182Z,0.00
2018-12-02T00:36:39.167Z,0.00
2018-12-02T00:37:39.159Z,0.00
2018-12-02T00:38:39.147Z,0.00
2018-12-02T00:39:39.134Z,0.00
2018-12-02T00:40:39.120Z,0.00
2018-12-02T00:41:39.112Z,0.00
2018-12-02T00:42:39.098Z,0.00
2018-12-02T00:43:39.088Z,0.00
2018-12-02T00:44:39.077Z,0.00
2018-12-02T00:45:39.066Z,0.00
2018-12-02T00:46:39.060Z,0.00
2018-12-02T00:47:39.051Z,0.00
2018-12-02T00:48:39.032Z,0.00
2018-12-02T00:49:39.023Z,0.00
2018-12-02T00:50:39.011Z,0.00
2018-12-02T00:51:38.999Z,0.00
2018-12-02T00:52:38.989Z,0.00
2018-12-02T00:53:38.975Z,0.00
2018-12-02T00:54:38.963Z,0.00
2018-12-02T00:55:38.955Z,0.00
2018-12-02T00:56:38.946Z,0.00
2018-12-02T00:57:38.932Z,0.00
2018-12-02T00:58:38.919Z,0.00
2018-12-02T00:59:38.907Z,0.00
2018-12-02T01:00:38.897Z,0.00
2018-12-02T01:01:38.884Z,0.00
2018-12-02T01:02:38.873Z,0.00
2018-12-02T01:03:38.863Z,0.00
2018-12-02T01:04:38.850Z,0.00
2018-12-02T01:05:38.838Z,0.00
2018-12-02T01:06:38.827Z,0.00
2018-12-02T01:07:38.816Z,0.00
2018-12-02T01:08:38.807Z,0.00
2018-12-02T01:09:38.795Z,0.00
2018-12-02T01:10:38.782Z,0.00
2018-12-02T01:11:38.771Z,0.00
2018-12-02T01:12:38.760Z,0.00
2018-12-02T01:13:38.748Z,0.00
2018-12-02T01:14:38.736Z,0.00
2018-12-02T01:15:38.730Z,0.00
2018-12-02T01:16:38.716Z,0.00
2018-12-02T01:17:38.704Z,0.00
2018-12-02T01:18:38.692Z,0.00
2018-12-02T01:19:38.684Z,0.00
2018-12-02T01:20:38.672Z,0.00
2018-12-02T01:21:38.656Z,0.00
2018-12-02T01:22:38.649Z,0.00
2018-12-02T01:23:38.638Z,0.00
2018-12-02T01:24:38.628Z,0.00
2018-12-02T01:25:38.612Z,0.00
2018-12-02T01:26:38.601Z,0.00
2018-12-02T01:27:38.590Z,0.00
2018-12-02T01:28:38.578Z,0.00
2018-12-02T01:29:38.565Z,0.00
2018-12-02T01:30:38.560Z,0.00
2018-12-02T01:31:38.542Z,0.00
2018-12-02T01:32:38.532Z,0.00
2018-12-02T01:33:38.519Z,0.00
2018-12-02T01:34:38.508Z,0.00
2018-12-02T01:35:38.501Z,0.00
2018-12-02T01:36:38.484Z,0.00
2018-12-02T01:37:38.475Z,0.00
2018-12-02T01:38:38.463Z,0.00
2018-12-02T01:39:38.450Z,0.00
2018-12-02T01:40:38.441Z,0.00
2018-12-02T01:41:38.426Z,0.00
2018-12-02T01:42:38.415Z,0.00
2018-12-02T01:43:38.405Z,0.00
2018-12-02T01:44:38.394Z,0.00
2018-12-02T01:45:38.382Z,0.00
2018-12-02T01:46:38.370Z,0.00
2018-12-02T01:47:38.361Z,0.00
2018-12-02T01:48:38.347Z,0.00
2018-12-02T01:49:38.335Z,0.00
2018-12-02T01:50:38.325Z,0.00
2018-12-02T01:51:38.314Z,0.00
2018-12-02T01:52:38.301Z,0.00
2018-12-02T01:53:38.290Z,0.00
2018-12-02T01:54:38.282Z,0.00
2018-12-02T01:55:38.268Z,0.00
2018-12-02T01:56:38.257Z,0.00
2018-12-02T01:57:38.290Z,0.00
2018-12-02T01:58:38.233Z,0.00
2018-12-02T01:59:38.222Z,0.00
2018-12-02T02:00:38.216Z,0.00
2018-12-02T02:01:38.205Z,0.00
2018-12-02T02:02:38.197Z,0.00
2018-12-02T02:03:38.222Z,0.00
2018-12-02T02:04:38.166Z,0.00
2018-12-02T02:05:38.154Z,0.00
2018-12-02T02:06:38.143Z,0.00
2018-12-02T02:07:38.131Z,0.00
2018-12-02T02:08:38.123Z,0.00
2018-12-02T02:09:38.117Z,0.00
2018-12-02T02:10:38.110Z,0.00
2018-12-02T02:11:38.092Z,0.00
2018-12-02T02:12:38.076Z,0.00
2018-12-02T02:13:38.068Z,0.00
2018-12-02T02:14:38.056Z,0.00
2018-12-02T02:15:38.044Z,0.00
2018-12-02T02:16:38.029Z,0.00
2018-12-02T02:17:38.018Z,0.00
2018-12-02T02:18:38.013Z,0.00
2018-12-02T02:19:37.993Z,0.00
2018-12-02T02:20:37.993Z,0.00
2018-12-02T02:21:37.972Z,0.00
2018-12-02T02:22:37.960Z,0.00
2018-12-02T02:23:37.950Z,0.00
2018-12-02T02:24:37.940Z,0.00
2018-12-02T02:25:37.927Z,0.00
2018-12-02T02:26:37.965Z,0.00
2018-12-02T02:27:37.908Z,0.00
2018-12-02T02:28:37.898Z,0.00
2018-12-02T02:29:37.882Z,0.00
2018-12-02T02:30:37.873Z,0.00
2018-12-02T02:31:37.859Z,0.00
2018-12-02T02:32:37.849Z,0.00
2018-12-02T02:33:37.835Z,0.00
2018-12-02T02:34:37.824Z,0.00
2018-12-02T02:35:37.816Z,0.00
2018-12-02T02:36:37.805Z,0.00
2018-12-02T02:37:37.791Z,0.00
2018-12-02T02:38:37.778Z,0.00
2018-12-02T02:39:37.767Z,0.00
2018-12-02T02:40:37.758Z,0.00
2018-12-02T02:41:37.744Z,0.00
2018-12-02T02:42:37.734Z,0.00
2018-12-02T02:43:37.724Z,0.00
2018-12-02T02:44:37.711Z,0.00
2018-12-02T02:45:37.710Z,0.00
2018-12-02T02:46:37.694Z,0.00
2018-12-02T02:47:37.676Z,0.00
2018-12-02T02:48:37.668Z,0.00
2018-12-02T02:49:37.655Z,0.00
2018-12-02T02:50:37.646Z,0.00
2018-12-02T02:51:37.631Z,0.00
2018-12-02T02:52:37.619Z,0.00
2018-12-02T02:53:37.610Z,0.00
2018-12-02T02:54:37.603Z,0.00
2018-12-02T02:55:37.584Z,0.00
2018-12-02T02:56:37.574Z,0.00
2018-12-02T02:57:37.563Z,0.00
2018-12-02T02:58:37.551Z,0.00
2018-12-02T02:59:37.543Z,0.00
2018-12-02T03:00:37.528Z,0.00
2018-12-02T03:01:37.517Z,0.00
2018-12-02T03:02:37.507Z,0.00
2018-12-02T03:03:37.499Z,0.00
2018-12-02T03:04:37.489Z,0.00
2018-12-02T03:05:37.473Z,0.00
2018-12-02T03:06:37.460Z,0.00
2018-12-02T03:07:37.449Z,0.00
2018-12-02T03:08:37.438Z,0.00
2018-12-02T03:09:37.426Z,0.00
2018-12-02T03:10:37.417Z,0.00
2018-12-02T03:11:37.414Z,0.00
2018-12-02T03:12:37.393Z,0.00
2018-12-02T03:13:37.383Z,0.00
2018-12-02T03:14:37.369Z,0.00
2018-12-02T03:15:37.358Z,0.00
2018-12-02T03:16:37.349Z,0.00
2018-12-02T03:17:37.339Z,0.00
2018-12-02T03:18:37.326Z,0.00
2018-12-02T03:19:37.315Z,0.00
2018-12-02T03:20:37.303Z,0.00
2018-12-02T03:21:37.292Z,0.00
2018-12-02T03:22:37.280Z,0.00
2018-12-02T03:23:37.268Z,0.00
2018-12-02T03:24:37.255Z,0.00
2018-12-02T03:25:37.246Z,0.00
2018-12-02T03:26:37.234Z,0.00
2018-12-02T03:27:37.230Z,0.00
2018-12-02T03:28:37.217Z,0.00
2018-12-02T03:29:37.199Z,0.00
2018-12-02T03:30:37.194Z,0.00
2018-12-02T03:31:37.182Z,0.00
2018-12-02T03:32:37.181Z,0.00
2018-12-02T03:33:37.156Z,0.00
2018-12-02T03:34:37.147Z,0.00
2018-12-02T03:35:37.138Z,0.00
2018-12-02T03:36:37.124Z,0.00
2018-12-02T03:37:37.109Z,0.00
2018-12-02T03:38:37.099Z,0.00
2018-12-02T03:39:37.087Z,0.00
2018-12-02T03:40:37.075Z,0.00
2018-12-02T03:41:37.064Z,0.00
2018-12-02T03:42:37.051Z,0.00
2018-12-02T03:43:37.041Z,0.00
2018-12-02T03:44:37.032Z,0.00
2018-12-02T03:45:37.018Z,0.00
2018-12-02T03:46:37.010Z,0.00
2018-12-02T03:47:37.004Z,0.00
2018-12-02T03:48:36.988Z,0.00
2018-12-02T03:49:36.977Z,0.00
2018-12-02T03:50:36.962Z,0.00
2018-12-02T03:51:36.953Z,0.00
2018-12-02T03:52:36.939Z,0.00
2018-12-02T03:53:36.932Z,0.00
2018-12-02T03:54:36.922Z,0.00
2018-12-02T03:55:36.905Z,0.00
2018-12-02T03:56:36.897Z,0.00
2018-12-02T03:57:36.881Z,0.00
2018-12-02T03:58:36.885Z,0.00
2018-12-02T03:59:36.858Z,0.00
2018-12-02T04:00:36.849Z,0.00
2018-12-02T04:01:36.845Z,0.00
2018-12-02T04:02:36.829Z,0.00
2018-12-02T04:03:36.816Z,0.00
2018-12-02T04:04:36.810Z,0.00
2018-12-02T04:05:36.792Z,0.00
2018-12-02T04:06:36.790Z,0.00
2018-12-02T04:07:36.773Z,0.00
2018-12-02T04:08:36.769Z,0.00
2018-12-02T04:09:36.747Z,0.00
2018-12-02T04:10:36.735Z,0.00
2018-12-02T04:11:36.728Z,0.00
2018-12-02T04:12:36.713Z,0.00
2018-12-02T04:13:36.703Z,0.00
2018-12-02T04:14:36.693Z,0.00
2018-12-02T04:15:36.686Z,0.00
2018-12-02T04:16:36.667Z,0.00
2018-12-02T04:17:36.664Z,0.00
2018-12-02T04:18:36.647Z,0.00
2018-12-02T04:19:36.643Z,0.00
2018-12-02T04:20:36.625Z,0.00
2018-12-02T04:21:36.615Z,0.00
2018-12-02T04:22:36.598Z,0.00
2018-12-02T04:23:36.588Z,0.00
2018-12-02T04:24:36.577Z,0.00
2018-12-02T04:25:36.570Z,0.00
2018-12-02T04:26:36.553Z,0.00
2018-12-02T04:27:36.541Z,0.00
2018-12-02T04:28:36.531Z,0.00
2018-12-02T04:29:36.527Z,0.00
2018-12-02T04:30:36.507Z,0.00
2018-12-02T04:31:36.499Z,0.00
2018-12-02T04:32:36.489Z,0.00
2018-12-02T04:33:36.474Z,0.00
2018-12-02T04:34:36.464Z,0.00
2018-12-02T04:35:36.456Z,0.00
2018-12-02T04:36:36.441Z,0.00
2018-12-02T04:37:36.431Z,0.00
2018-12-02T04:38:36.417Z,0.00
2018-12-02T04:39:36.405Z,0.00
2018-12-02T04:40:36.399Z,0.00
2018-12-02T04:41:36.385Z,0.00
2018-12-02T04:42:36.370Z,0.00
2018-12-02T04:43:36.373Z,0.00
2018-12-02T04:44:36.349Z,0.00
2018-12-02T04:45:36.342Z,0.00
2018-12-02T04:46:36.371Z,0.00
2018-12-02T04:47:36.320Z,0.00
2018-12-02T04:48:36.311Z,0.00
2018-12-02T04:49:36.295Z,0.00
2018-12-02T04:50:36.284Z,0.00
2018-12-02T04:51:36.268Z,0.00
2018-12-02T04:52:36.259Z,0.00
2018-12-02T04:53:36.247Z,0.00
2018-12-02T04:54:36.234Z,0.00
2018-12-02T04:55:36.223Z,0.00
2018-12-02T04:56:36.218Z,0.00
2018-12-02T04:57:36.200Z,0.00
2018-12-02T04:58:36.189Z,0.00
2018-12-02T04:59:36.183Z,0.00
2018-12-02T05:00:36.178Z,0.00
2018-12-02T05:01:36.161Z,0.00
2018-12-02T05:02:36.143Z,0.00
2018-12-02T05:03:36.133Z,0.00
2018-12-02T05:04:36.121Z,0.00
2018-12-02T05:05:36.110Z,0.00
2018-12-02T05:06:36.099Z,0.00
2018-12-02T05:07:36.097Z,0.00
2018-12-02T05:08:36.076Z,0.00
2018-12-02T05:09:36.069Z,0.00
2018-12-02T05:10:36.052Z,0.00
2018-12-02T05:11:36.045Z,0.00
2018-12-02T05:12:36.031Z,0.00
2018-12-02T05:13:36.019Z,0.00
2018-12-02T05:14:36.008Z,0.00
2018-12-02T05:15:35.999Z,0.00
2018-12-02T05:16:35.987Z,0.00
2018-12-02T05:17:35.979Z,0.00
2018-12-02T05:18:35.960Z,0.00
2018-12-02T05:19:35.951Z,0.00
2018-12-02T05:20:35.938Z,0.00
2018-12-02T05:21:35.927Z,0.00
2018-12-02T05:22:35.918Z,0.00
2018-12-02T05:23:35.907Z,0.00
2018-12-02T05:24:35.900Z,0.00
2018-12-02T05:25:35.883Z,0.00
2018-12-02T05:26:35.871Z,0.00
2018-12-02T05:27:35.862Z,0.00
2018-12-02T05:28:35.848Z,0.00
2018-12-02T05:29:35.837Z,0.00
2018-12-02T05:30:35.828Z,0.00
2018-12-02T05:31:35.818Z,0.00
2018-12-02T05:32:35.808Z,0.00
2018-12-02T05:33:35.794Z,0.00
2018-12-02T05:34:35.780Z,0.00
2018-12-02T05:35:35.769Z,0.00
2018-12-02T05:36:35.758Z,0.00
2018-12-02T05:37:35.746Z,0.00
2018-12-02T05:38:35.734Z,0.00
2018-12-02T05:39:35.722Z,0.00
2018-12-02T05:40:35.714Z,0.00
2018-12-02T05:41:35.705Z,0.00
2018-12-02T05:42:35.694Z,0.00
2018-12-02T05:43:35.688Z,0.00
2018-12-02T05:44:35.666Z,0.00
2018-12-02T05:45:35.660Z,0.00
2018-12-02T05:46:35.643Z,0.00
2018-12-02T05:47:35.634Z,0.00
2018-12-02T05:48:35.620Z,0.00
2018-12-02T05:49:35.610Z,0.00
2018-12-02T05:50:35.604Z,0.00
2018-12-02T05:51:35.590Z,0.00
2018-12-02T05:52:35.575Z,0.00
2018-12-02T05:53:35.566Z,0.00
2018-12-02T05:54:35.552Z,0.00
2018-12-02T05:55:35.540Z,0.00
2018-12-02T05:56:35.530Z,0.00
2018-12-02T05:57:35.516Z,0.00
2018-12-02T05:58:35.509Z,0.00
2018-12-02T05:59:35.494Z,0.00
2018-12-02T06:00:35.496Z,0.00
2018-12-02T06:01:35.472Z,0.00
2018-12-02T06:02:39.426Z,0.00
2018-12-02T06:03:35.457Z,0.00
2018-12-02T06:04:35.456Z,0.00
2018-12-02T06:05:35.456Z,0.00
2018-12-02T06:06:35.458Z,0.00
2018-12-02T06:07:35.408Z,0.00
2018-12-02T06:08:35.405Z,0.00
2018-12-02T06:09:35.409Z,0.00
2018-12-02T06:10:35.412Z,0.00
2018-12-02T06:11:35.415Z,0.00
2018-12-02T06:12:35.347Z,0.00
2018-12-02T06:13:35.341Z,0.00
2018-12-02T06:14:35.331Z,0.00
2018-12-02T06:15:35.319Z,0.00
2018-12-02T06:16:35.302Z,0.00
2018-12-02T06:17:35.290Z,4.00
2018-12-02T06:18:35.282Z,4.00
2018-12-02T06:19:35.267Z,4.00
2018-12-02T06:20:35.259Z,0.00
2018-12-02T06:21:35.246Z,0.00
2018-12-02T06:22:35.233Z,0.00
2018-12-02T06:23:35.223Z,4.00
2018-12-02T06:24:35.213Z,4.00
2018-12-02T06:25:35.201Z,4.00
2018-12-02T06:26:35.189Z,4.00
2018-12-02T06:27:35.180Z,8.00
2018-12-02T06:28:35.172Z,4.00
2018-12-02T06:29:35.156Z,4.00
2018-12-02T06:30:35.149Z,8.00
2018-12-02T06:31:35.136Z,8.00
2018-12-02T06:32:35.124Z,8.00
2018-12-02T06:33:35.113Z,8.00
2018-12-02T06:34:35.099Z,12.00
2018-12-02T06:35:35.088Z,12.00
2018-12-02T06:36:35.080Z,12.00
2018-12-02T06:37:35.063Z,12.00
2018-12-02T06:38:35.057Z,16.00
2018-12-02T06:39:35.040Z,20.00
2018-12-02T06:40:35.031Z,24.00
2018-12-02T06:41:35.037Z,24.00
2018-12-02T06:42:35.012Z,32.00
2018-12-02T06:43:34.995Z,44.00
2018-12-02T06:44:34.984Z,52.00
2018-12-02T06:45:35.003Z,64.00
2018-12-02T06:46:34.960Z,72.00
2018-12-02T06:47:34.951Z,84.00
2018-12-02T06:48:34.939Z,92.00
2018-12-02T06:49:34.968Z,92.00
2018-12-02T06:50:34.914Z,100.00
2018-12-02T06:51:34.952Z,104.00
2018-12-02T06:52:34.891Z,108.00
2018-12-02T06:53:34.923Z,116.00
2018-12-02T06:54:34.870Z,120.00
2018-12-02T06:55:34.859Z,124.00
2018-12-02T06:56:34.847Z,128.00
2018-12-02T06:57:34.877Z,140.00
2018-12-02T06:58:34.823Z,148.00
2018-12-02T06:59:34.816Z,148.00
2018-12-02T07:00:34.805Z,140.00
2018-12-02T07:01:34.824Z,136.00
2018-12-02T07:02:34.778Z,136.00
2018-12-02T07:03:34.776Z,140.00
2018-12-02T07:04:34.756Z,148.00
2018-12-02T07:05:34.780Z,152.00
2018-12-02T07:06:34.733Z,160.00
2018-12-02T07:07:34.734Z,164.00
2018-12-02T07:08:34.709Z,172.00
2018-12-02T07:09:34.703Z,192.00
2018-12-02T07:10:34.686Z,208.00
2018-12-02T07:11:34.738Z,220.00
2018-12-02T07:12:34.669Z,240.00
2018-12-02T07:13:34.696Z,240.00
2018-12-02T07:14:34.646Z,268.00
2018-12-02T07:15:34.633Z,304.00
2018-12-02T07:16:34.621Z,344.00
2018-12-02T07:17:34.608Z,384.00
2018-12-02T07:18:34.599Z,424.00
2018-12-02T07:19:34.601Z,440.00
2018-12-02T07:20:34.577Z,456.00
2018-12-02T07:21:34.563Z,480.00
2018-12-02T07:22:34.551Z,484.00
2018-12-02T07:23:34.538Z,464.00
2018-12-02T07:24:34.529Z,448.00
2018-12-02T07:25:34.517Z,452.00
2018-12-02T07:26:34.528Z,456.00
2018-12-02T07:27:34.493Z,456.00
2018-12-02T07:28:34.488Z,464.00
2018-12-02T07:29:34.469Z,484.00
2018-12-02T07:30:34.462Z,500.00
2018-12-02T07:31:34.447Z,528.00
2018-12-02T07:32:34.440Z,556.00
2018-12-02T07:33:34.424Z,576.00
2018-12-02T07:34:34.412Z,584.00
2018-12-02T07:35:34.411Z,604.00
2018-12-02T07:36:34.390Z,640.00
2018-12-02T07:37:34.378Z,668.00
2018-12-02T07:38:34.367Z,688.00
2018-12-02T07:39:34.358Z,684.00
2018-12-02T07:40:34.347Z,680.00
2018-12-02T07:41:34.334Z,672.00
2018-12-02T07:42:34.321Z,640.00
2018-12-02T07:43:34.309Z,600.00
2018-12-02T07:44:34.297Z,596.00
2018-12-02T07:45:34.289Z,608.00
2018-12-02T07:46:34.274Z,584.00
2018-12-02T07:47:34.265Z,544.00
2018-12-02T07:48:34.253Z,540.00
2018-12-02T07:49:34.241Z,580.00
2018-12-02T07:50:34.232Z,616.00
2018-12-02T07:51:34.221Z,648.00
2018-12-02T07:52:34.212Z,668.00
2018-12-02T07:53:34.197Z,684.00
2018-12-02T07:54:34.184Z,712.00
2018-12-02T07:55:34.171Z,724.00
2018-12-02T07:56:34.162Z,712.00
2018-12-02T07:57:34.149Z,700.00
2018-12-02T07:58:34.140Z,684.00
2018-12-02T07:59:34.128Z,696.00
2018-12-02T08:00:34.115Z,740.00
2018-12-02T08:01:34.103Z,772.00
2018-12-02T08:02:34.096Z,784.00
2018-12-02T08:03:34.086Z,796.00
2018-12-02T08:04:34.070Z,828.00
2018-12-02T08:05:34.058Z,848.00
2018-12-02T08:06:34.049Z,844.00
2018-12-02T08:07:34.034Z,852.00
2018-12-02T08:08:34.023Z,864.00
2018-12-02T08:09:34.017Z,860.00
2018-12-02T08:10:34.006Z,884.00
2018-12-02T08:11:33.990Z,932.00
2018-12-02T08:12:33.978Z,944.00
2018-12-02T08:13:33.967Z,904.00
2018-12-02T08:14:33.956Z,896.00
2018-12-02T08:15:33.943Z,984.00
2018-12-02T08:16:33.934Z,1056.00
2018-12-02T08:17:33.921Z,1088.00
2018-12-02T08:18:33.913Z,1132.00
2018-12-02T08:19:33.899Z,1212.00
2018-12-02T08:20:33.889Z,1248.00
2018-12-02T08:21:33.874Z,1224.00
2018-12-02T08:22:33.865Z,1192.00
2018-12-02T08:23:33.851Z,1188.00
2018-12-02T08:24:33.858Z,1196.00
2018-12-02T08:25:33.828Z,1204.00
2018-12-02T08:26:33.817Z,1228.00
2018-12-02T08:27:33.817Z,1280.00
2018-12-02T08:28:33.799Z,1352.00
2018-12-02T08:29:33.783Z,1428.00
2018-12-02T08:30:33.773Z,1500.00
2018-12-02T08:31:33.760Z,1588.00
2018-12-02T08:32:33.753Z,1708.00
2018-12-02T08:33:33.737Z,1852.00
2018-12-02T08:34:33.726Z,2000.00
2018-12-02T08:35:33.714Z,2160.00
2018-12-02T08:36:33.702Z,2324.00
2018-12-02T08:37:33.694Z,2428.00
2018-12-02T08:38:33.684Z,2448.00
2018-12-02T08:39:33.676Z,2444.00
2018-12-02T08:40:33.659Z,2464.00
2018-12-02T08:41:33.648Z,2480.00
2018-12-02T08:42:33.634Z,2496.00
2018-12-02T08:43:33.622Z,2500.00
2018-12-02T08:44:33.614Z,2460.00
2018-12-02T08:45:33.606Z,2392.00
2018-12-02T08:46:33.589Z,2332.00
2018-12-02T08:47:33.578Z,2292.00
2018-12-02T08:48:33.565Z,2260.00
2018-12-02T08:49:33.556Z,2216.00
2018-12-02T08:50:33.544Z,2184.00
2018-12-02T08:51:33.531Z,2172.00
2018-12-02T08:52:33.523Z,2180.00
2018-12-02T08:53:33.514Z,2188.00
2018-12-02T08:54:33.496Z,2204.00
2018-12-02T08:55:33.486Z,2204.00
2018-12-02T08:56:33.475Z,2220.00
2018-12-02T08:57:33.462Z,2252.00
2018-12-02T08:58:33.451Z,2296.00
2018-12-02T08:59:33.439Z,2336.00
2018-12-02T09:00:33.433Z,2388.00
2018-12-02T09:01:33.417Z,2464.00
2018-12-02T09:02:33.404Z,2584.00
2018-12-02T09:03:33.394Z,2768.00
2018-12-02T09:04:33.382Z,3032.00
2018-12-02T09:05:33.370Z,3400.00
2018-12-02T09:06:33.359Z,3836.00
2018-12-02T09:07:33.347Z,4272.00
2018-12-02T09:08:33.341Z,4660.00
2018-12-02T09:09:33.333Z,4944.00
2018-12-02T09:10:33.313Z,5084.00
2018-12-02T09:11:33.304Z,5140.00
2018-12-02T09:12:33.293Z,5088.00
2018-12-02T09:13:33.281Z,5004.00
2018-12-02T09:14:33.269Z,4904.00
2018-12-02T09:15:33.274Z,4828.00
2018-12-02T09:16:33.248Z,4768.00
2018-12-02T09:17:33.237Z,4728.00
2018-12-02T09:18:33.222Z,4632.00
2018-12-02T09:19:33.212Z,4412.00
2018-12-02T09:20:33.207Z,4196.00
2018-12-02T09:21:33.187Z,3916.00
2018-12-02T09:22:33.178Z,3612.00
2018-12-02T09:23:33.170Z,3304.00
2018-12-02T09:24:33.153Z,3064.00
2018-12-02T09:25:33.144Z,2924.00
2018-12-02T09:26:33.132Z,2840.00
2018-12-02T09:27:33.120Z,2800.00
2018-12-02T09:28:33.108Z,2808.00
2018-12-02T09:29:33.099Z,2848.00
2018-12-02T09:30:33.087Z,2924.00
2018-12-02T09:31:33.074Z,3024.00
2018-12-02T09:32:33.063Z,3128.00
2018-12-02T09:33:33.057Z,3232.00
2018-12-02T09:34:33.039Z,3280.00
2018-12-02T09:35:33.028Z,3236.00
2018-12-02T09:36:33.018Z,3160.00
2018-12-02T09:37:33.006Z,3056.00
2018-12-02T09:38:32.998Z,2940.00
2018-12-02T09:39:32.982Z,2796.00
2018-12-02T09:40:32.972Z,2660.00
2018-12-02T09:41:32.959Z,2528.00
2018-12-02T09:42:32.951Z,2396.00
2018-12-02T09:43:32.937Z,2296.00
2018-12-02T09:44:32.931Z,2236.00
2018-12-02T09:45:32.916Z,2204.00
2018-12-02T09:46:32.906Z,2180.00
2018-12-02T09:47:32.892Z,2148.00
2018-12-02T09:48:32.885Z,2108.00
2018-12-02T09:49:32.875Z,2060.00
2018-12-02T09:50:32.859Z,2016.00
2018-12-02T09:51:32.848Z,1988.00
2018-12-02T09:52:32.835Z,1968.00
2018-12-02T09:53:32.824Z,1952.00
2018-12-02T09:54:32.814Z,1944.00
2018-12-02T09:55:32.808Z,1968.00
2018-12-02T09:56:32.792Z,1996.00
2018-12-02T09:57:32.782Z,2040.00
2018-12-02T09:58:32.767Z,2080.00
2018-12-02T09:59:32.760Z,2128.00
2018-12-02T10:00:34.393Z,2168.00
2018-12-02T10:01:32.733Z,2180.00
2018-12-02T10:02:32.724Z,2156.00
2018-12-02T10:03:32.711Z,2064.00
2018-12-02T10:04:32.702Z,1972.00
2018-12-02T10:05:32.691Z,1916.00
2018-12-02T10:06:32.678Z,1900.00
2018-12-02T10:07:32.666Z,1920.00
2018-12-02T10:08:32.655Z,1960.00
2018-12-02T10:09:32.643Z,2040.00
2018-12-02T10:10:32.635Z,2172.00
2018-12-02T10:11:32.651Z,2304.00
2018-12-02T10:12:32.612Z,2400.00
2018-12-02T10:13:32.598Z,2496.00
2018-12-02T10:14:32.587Z,2632.00
2018-12-02T10:15:32.575Z,2792.00
2018-12-02T10:16:32.568Z,2908.00
2018-12-02T10:17:32.553Z,2972.00
2018-12-02T10:18:32.547Z,3008.00
2018-12-02T10:19:32.589Z,3072.00
2018-12-02T10:20:32.519Z,3144.00
2018-12-02T10:21:32.509Z,3208.00
2018-12-02T10:22:32.499Z,3260.00
2018-12-02T10:23:32.487Z,3300.00
2018-12-02T10:24:32.476Z,3292.00
2018-12-02T10:25:32.465Z,3252.00
2018-12-02T10:26:32.453Z,3248.00
2018-12-02T10:27:32.450Z,3284.00
2018-12-02T10:28:32.430Z,3376.00
2018-12-02T10:29:32.420Z,3480.00
2018-12-02T10:30:32.408Z,3552.00
2018-12-02T10:31:32.397Z,3656.00
2018-12-02T10:32:32.396Z,3824.00
2018-12-02T10:33:32.375Z,3988.00
2018-12-02T10:34:32.364Z,4068.00
2018-12-02T10:35:32.354Z,4148.00
2018-12-02T10:36:32.350Z,4216.00
2018-12-02T10:37:32.331Z,4188.00
2018-12-02T10:38:32.323Z,4056.00
2018-12-02T10:39:32.309Z,3852.00
2018-12-02T10:40:32.793Z,3644.00
2018-12-02T10:41:32.295Z,3456.00
2018-12-02T10:42:32.277Z,3308.00
2018-12-02T10:43:32.266Z,3176.00
2018-12-02T10:44:32.261Z,3048.00
2018-12-02T10:45:32.245Z,2960.00
2018-12-02T10:46:32.235Z,2904.00
2018-12-02T10:47:32.223Z,2864.00
2018-12-02T10:48:32.217Z,2828.00
2018-12-02T10:49:32.201Z,2756.00
2018-12-02T10:50:32.192Z,2692.00
2018-12-02T10:51:32.182Z,2624.00
2018-12-02T10:52:32.175Z,2568.00
2018-12-02T10:53:32.158Z,2572.00
2018-12-02T10:54:32.145Z,2592.00
2018-12-02T10:55:32.134Z,2636.00
2018-12-02T10:56:32.127Z,2664.00
2018-12-02T10:57:32.111Z,2584.00
2018-12-02T10:58:32.100Z,2652.00
2018-12-02T10:59:32.089Z,2532.00
2018-12-02T11:00:32.130Z,2308.00
2018-12-02T11:01:32.067Z,2372.00
2018-12-02T11:02:32.062Z,2352.00
2018-12-02T11:03:32.055Z,2412.00
2018-12-02T11:04:32.034Z,2340.00
2018-12-02T11:05:32.028Z,2476.00
2018-12-02T11:06:32.012Z,2440.00
2018-12-02T11:07:32.008Z,2480.00
2018-12-02T11:08:31.994Z,2296.00
2018-12-02T11:09:31.979Z,2240.00
2018-12-02T11:10:31.972Z,2208.00
2018-12-02T11:11:31.957Z,2324.00
2018-12-02T11:12:31.957Z,2428.00
2018-12-02T11:13:31.938Z,2576.00
2018-12-02T11:14:31.925Z,2576.00
2018-12-02T11:15:31.918Z,2688.00
2018-12-02T11:16:31.902Z,2700.00
2018-12-02T11:17:31.894Z,2900.00
2018-12-02T11:18:31.881Z,3280.00
2018-12-02T11:19:31.870Z,3100.00
2018-12-02T11:20:31.861Z,3540.00
2018-12-02T11:21:31.848Z,3684.00
2018-12-02T11:22:31.839Z,3892.00
2018-12-02T11:23:31.830Z,3832.00
2018-12-02T11:24:31.815Z,3716.00
2018-12-02T11:25:31.809Z,3632.00
2018-12-02T11:26:31.797Z,3676.00
2018-12-02T11:27:31.782Z,4188.00
2018-12-02T11:28:31.770Z,4196.00
2018-12-02T11:29:31.760Z,4080.00
2018-12-02T11:30:31.751Z,4044.00
2018-12-02T11:31:31.738Z,3944.00
2018-12-02T11:32:31.726Z,3788.00
2018-12-02T11:33:31.720Z,3760.00
2018-12-02T11:34:31.708Z,3660.00
2018-12-02T11:35:31.694Z,3576.00
2018-12-02T11:36:31.685Z,3456.00
2018-12-02T11:37:31.671Z,3320.00
2018-12-02T11:38:31.660Z,3156.00
2018-12-02T11:39:31.649Z,3108.00
2018-12-02T11:40:31.645Z,2956.00
2018-12-02T11:41:31.634Z,2764.00
2018-12-02T11:42:31.623Z,2772.00
2018-12-02T11:43:31.608Z,2784.00
2018-12-02T11:44:31.594Z,2760.00
2018-12-02T11:45:31.606Z,2620.00
2018-12-02T11:46:31.607Z,2560.00
2018-12-02T11:47:31.603Z,2440.00
2018-12-02T11:48:31.557Z,2452.00
2018-12-02T11:49:31.546Z,2524.00
2018-12-02T11:50:31.554Z,2548.00
2018-12-02T11:51:31.552Z,2444.00
2018-12-02T11:52:31.560Z,2396.00
2018-12-02T11:53:31.500Z,2576.00
2018-12-02T11:54:31.485Z,2636.00
2018-12-02T11:55:31.473Z,2540.00
2018-12-02T11:56:31.470Z,2380.00
2018-12-02T11:57:31.450Z,2492.00
2018-12-02T11:58:31.440Z,2744.00
2018-12-02T11:59:31.432Z,2776.00
2018-12-02T12:00:31.416Z,2536.00
2018-12-02T12:01:31.404Z,2460.00
2018-12-02T12:02:31.398Z,2360.00
2018-12-02T12:03:31.385Z,2408.00
2018-12-02T12:04:31.369Z,2252.00
2018-12-02T12:05:31.364Z,2284.00
2018-12-02T12:06:31.347Z,2424.00
2018-12-02T12:07:31.339Z,2548.00
2018-12-02T12:08:31.527Z,2272.00
2018-12-02T12:09:31.314Z,2168.00
2018-12-02T12:10:31.305Z,2068.00
2018-12-02T12:11:31.294Z,1908.00
2018-12-02T12:12:31.281Z,1772.00
2018-12-02T12:13:31.267Z,1904.00
2018-12-02T12:14:31.255Z,1800.00
2018-12-02T12:15:31.246Z,1792.00
2018-12-02T12:16:31.237Z,1624.00
2018-12-02T12:17:31.225Z,1560.00
2018-12-02T12:18:31.211Z,1516.00
2018-12-02T12:19:31.206Z,1540.00
2018-12-02T12:20:31.190Z,1500.00
2018-12-02T12:21:31.183Z,1524.00
2018-12-02T12:22:31.168Z,1500.00
2018-12-02T12:23:31.159Z,1520.00
2018-12-02T12:24:31.145Z,1436.00
2018-12-02T12:25:31.141Z,1412.00
2018-12-02T12:26:31.124Z,1376.00
2018-12-02T12:27:31.112Z,1416.00
2018-12-02T12:28:31.105Z,1484.00
2018-12-02T12:29:31.091Z,1508.00
2018-12-02T12:30:31.078Z,1560.00
2018-12-02T12:31:31.067Z,1552.00
2018-12-02T12:32:31.057Z,1444.00
2018-12-02T12:33:31.046Z,1504.00
2018-12-02T12:34:31.035Z,1592.00
2018-12-02T12:35:31.025Z,1496.00
2018-12-02T12:36:31.021Z,1432.00
2018-12-02T12:37:31.001Z,1424.00
2018-12-02T12:38:30.988Z,1328.00
2018-12-02T12:39:30.978Z,1296.00
2018-12-02T12:40:30.971Z,1348.00
2018-12-02T12:41:30.956Z,1300.00
2018-12-02T12:42:30.942Z,1264.00
2018-12-02T12:43:30.929Z,1192.00
2018-12-02T12:44:30.924Z,1144.00
2018-12-02T12:45:30.908Z,1180.00